sensor_id;sensor_type;location;lat;lon;timestamp;pressure;altitude;pressure_sealevel;temperature;humidity
23261;BME280;11799;47.740;-3.390;2022-12-07T00:02:21;102050.00;;;2.82;82.42
23261;BME280;11799;47.740;-3.390;2022-12-07T00:04:49;102049.16;;;2.80;82.32
23261;BME280;11799;47.740;-3.390;2022-12-07T00:07:14;102050.81;;;2.84;82.73
23261;BME280;11799;47.740;-3.390;2022-12-07T00:09:40;102048.19;;;2.84;83.15
23261;BME280;11799;47.740;-3.390;2022-12-07T00:12:07;102049.13;;;2.81;83.01
23261;BME280;11799;47.740;-3.390;2022-12-07T00:14:33;102037.91;;;2.78;83.25
23261;BME280;11799;47.740;-3.390;2022-12-07T00:16:59;102036.19;;;2.77;82.74
23261;BME280;11799;47.740;-3.390;2022-12-07T00:19:24;102030.13;;;2.76;82.80
23261;BME280;11799;47.740;-3.390;2022-12-07T00:21:50;102029.25;;;2.77;83.29
23261;BME280;11799;47.740;-3.390;2022-12-07T00:24:15;102022.38;;;2.73;82.94
23261;BME280;11799;47.740;-3.390;2022-12-07T00:26:42;102026.72;;;2.74;82.59
23261;BME280;11799;47.740;-3.390;2022-12-07T00:29:28;102022.44;;;2.72;82.67
23261;BME280;11799;47.740;-3.390;2022-12-07T00:31:54;102024.22;;;2.70;83.00
23261;BME280;11799;47.740;-3.390;2022-12-07T00:34:20;102020.81;;;2.66;82.65
23261;BME280;11799;47.740;-3.390;2022-12-07T00:36:47;102019.91;;;2.69;82.58
23261;BME280;11799;47.740;-3.390;2022-12-07T00:39:13;102006.00;;;2.68;83.01
23261;BME280;11799;47.740;-3.390;2022-12-07T00:41:38;102004.28;;;2.67;82.46
23261;BME280;11799;47.740;-3.390;2022-12-07T00:44:04;102009.63;;;2.62;82.22
23261;BME280;11799;47.740;-3.390;2022-12-07T00:46:30;102011.28;;;2.65;82.53
23261;BME280;11799;47.740;-3.390;2022-12-07T00:48:56;101998.25;;;2.65;83.25
23261;BME280;11799;47.740;-3.390;2022-12-07T00:51:24;102006.94;;;2.65;82.42
23261;BME280;11799;47.740;-3.390;2022-12-07T00:53:50;101997.44;;;2.63;82.50
23261;BME280;11799;47.740;-3.390;2022-12-07T00:56:24;101995.03;;;2.55;82.34
23261;BME280;11799;47.740;-3.390;2022-12-07T01:01:18;101985.66;;;2.48;82.45
23261;BME280;11799;47.740;-3.390;2022-12-07T01:03:44;101983.84;;;2.50;82.53
23261;BME280;11799;47.740;-3.390;2022-12-07T01:06:14;101984.94;;;2.42;82.36
23261;BME280;11799;47.740;-3.390;2022-12-07T01:08:40;101989.22;;;2.44;82.51
23261;BME280;11799;47.740;-3.390;2022-12-07T01:11:07;101991.78;;;2.46;82.13
23261;BME280;11799;47.740;-3.390;2022-12-07T01:13:35;102002.25;;;2.44;82.23
23261;BME280;11799;47.740;-3.390;2022-12-07T01:16:03;102004.00;;;2.44;82.34
23261;BME280;11799;47.740;-3.390;2022-12-07T01:18:32;101991.88;;;2.43;82.46
23261;BME280;11799;47.740;-3.390;2022-12-07T01:21:16;101990.22;;;2.39;82.87
23261;BME280;11799;47.740;-3.390;2022-12-07T01:23:43;101991.88;;;2.43;83.24
23261;BME280;11799;47.740;-3.390;2022-12-07T01:26:17;101989.25;;;2.43;82.67
23261;BME280;11799;47.740;-3.390;2022-12-07T01:28:43;101985.78;;;2.42;82.80
23261;BME280;11799;47.740;-3.390;2022-12-07T01:31:11;101977.22;;;2.37;82.90
23261;BME280;11799;47.740;-3.390;2022-12-07T01:33:38;101972.94;;;2.35;82.91
23261;BME280;11799;47.740;-3.390;2022-12-07T01:36:23;101978.38;;;2.27;82.36
23261;BME280;11799;47.740;-3.390;2022-12-07T01:38:51;101964.50;;;2.26;82.89
23261;BME280;11799;47.740;-3.390;2022-12-07T01:41:18;101952.47;;;2.21;83.09
23261;BME280;11799;47.740;-3.390;2022-12-07T01:47:03;101969.72;;;2.26;82.70
23261;BME280;11799;47.740;-3.390;2022-12-07T01:49:47;101966.41;;;2.20;82.43
23261;BME280;11799;47.740;-3.390;2022-12-07T01:52:21;101968.13;;;2.21;82.45
23261;BME280;11799;47.740;-3.390;2022-12-07T01:54:49;101969.28;;;2.09;83.22
23261;BME280;11799;47.740;-3.390;2022-12-07T01:57:18;101964.84;;;2.13;82.98
23261;BME280;11799;47.740;-3.390;2022-12-07T01:59:45;101970.22;;;2.05;83.12
23261;BME280;11799;47.740;-3.390;2022-12-07T02:02:35;101973.66;;;2.07;83.18
23261;BME280;11799;47.740;-3.390;2022-12-07T02:05:04;101977.09;;;2.09;83.36
23261;BME280;11799;47.740;-3.390;2022-12-07T02:07:31;101984.91;;;2.09;83.73
23261;BME280;11799;47.740;-3.390;2022-12-07T02:10:14;101985.66;;;2.14;83.45
23261;BME280;11799;47.740;-3.390;2022-12-07T02:12:40;101984.88;;;2.11;83.36
23261;BME280;11799;47.740;-3.390;2022-12-07T02:15:07;101995.25;;;2.12;83.25
23261;BME280;11799;47.740;-3.390;2022-12-07T02:30:40;102003.25;;;2.05;83.24
23261;BME280;11799;47.740;-3.390;2022-12-07T02:33:16;102000.72;;;2.02;83.72
23261;BME280;11799;47.740;-3.390;2022-12-07T02:35:53;101995.59;;;1.97;83.87
23261;BME280;11799;47.740;-3.390;2022-12-07T02:38:37;101999.09;;;1.96;83.53
23261;BME280;11799;47.740;-3.390;2022-12-07T02:42:03;102006.88;;;1.97;83.44
23261;BME280;11799;47.740;-3.390;2022-12-07T02:44:19;101998.22;;;1.97;83.70
23261;BME280;11799;47.740;-3.390;2022-12-07T02:47:03;101993.00;;;1.97;83.69
23261;BME280;11799;47.740;-3.390;2022-12-07T02:49:30;101999.22;;;1.91;83.99
23261;BME280;11799;47.740;-3.390;2022-12-07T02:51:57;102000.03;;;1.93;83.87
23261;BME280;11799;47.740;-3.390;2022-12-07T02:54:22;102009.53;;;1.96;83.56
23261;BME280;11799;47.740;-3.390;2022-12-07T02:56:50;102004.31;;;1.96;84.06
23261;BME280;11799;47.740;-3.390;2022-12-07T03:07:42;102000.00;;;1.95;83.71
23261;BME280;11799;47.740;-3.390;2022-12-07T03:15:55;101989.66;;;1.92;83.54
23261;BME280;11799;47.740;-3.390;2022-12-07T03:18:24;101995.72;;;1.92;83.94
23261;BME280;11799;47.740;-3.390;2022-12-07T03:20:52;101992.19;;;1.95;83.59
23261;BME280;11799;47.740;-3.390;2022-12-07T03:23:19;101992.22;;;1.93;83.71
23261;BME280;11799;47.740;-3.390;2022-12-07T03:25:49;101994.84;;;1.92;83.70
23261;BME280;11799;47.740;-3.390;2022-12-07T03:28:19;101999.91;;;1.99;83.60
23261;BME280;11799;47.740;-3.390;2022-12-07T03:30:50;102005.97;;;2.00;83.87
23261;BME280;11799;47.740;-3.390;2022-12-07T03:33:22;102004.22;;;2.01;83.52
23261;BME280;11799;47.740;-3.390;2022-12-07T03:36:04;102012.97;;;1.98;83.71
23261;BME280;11799;47.740;-3.390;2022-12-07T03:41:25;102012.13;;;1.96;83.78
23261;BME280;11799;47.740;-3.390;2022-12-07T03:43:54;102006.94;;;1.96;83.32
23261;BME280;11799;47.740;-3.390;2022-12-07T03:49:12;102014.84;;;1.91;83.08
23261;BME280;11799;47.740;-3.390;2022-12-07T03:52:02;102006.16;;;1.91;83.03
23261;BME280;11799;47.740;-3.390;2022-12-07T03:54:36;102000.00;;;1.95;83.16
23261;BME280;11799;47.740;-3.390;2022-12-07T03:57:04;101997.47;;;1.92;83.45
23261;BME280;11799;47.740;-3.390;2022-12-07T03:59:31;101999.19;;;1.93;83.25
23261;BME280;11799;47.740;-3.390;2022-12-07T04:02:02;101989.69;;;1.90;82.78
23261;BME280;11799;47.740;-3.390;2022-12-07T04:04:28;101987.94;;;1.91;82.87
23261;BME280;11799;47.740;-3.390;2022-12-07T04:06:54;101993.97;;;1.93;82.81
23261;BME280;11799;47.740;-3.390;2022-12-07T04:09:20;101994.84;;;1.92;83.33
23261;BME280;11799;47.740;-3.390;2022-12-07T04:11:45;101993.94;;;1.94;83.31
23261;BME280;11799;47.740;-3.390;2022-12-07T04:14:11;101987.84;;;1.95;83.42
23261;BME280;11799;47.740;-3.390;2022-12-07T04:16:51;101987.94;;;1.91;82.84
23261;BME280;11799;47.740;-3.390;2022-12-07T04:19:19;101987.94;;;1.91;83.08
23261;BME280;11799;47.740;-3.390;2022-12-07T04:21:45;101989.66;;;1.92;83.26
23261;BME280;11799;47.740;-3.390;2022-12-07T04:24:12;101994.03;;;1.90;82.85
23261;BME280;11799;47.740;-3.390;2022-12-07T04:26:38;101989.72;;;1.89;82.91
23261;BME280;11799;47.740;-3.390;2022-12-07T04:29:04;101998.34;;;1.91;82.78
23261;BME280;11799;47.740;-3.390;2022-12-07T04:31:29;102000.97;;;1.91;82.84
23261;BME280;11799;47.740;-3.390;2022-12-07T04:33:55;101994.91;;;1.90;83.09
23261;BME280;11799;47.740;-3.390;2022-12-07T04:36:21;101991.41;;;1.91;83.53
23261;BME280;11799;47.740;-3.390;2022-12-07T04:38:47;101996.53;;;1.94;83.89
23261;BME280;11799;47.740;-3.390;2022-12-07T04:41:13;101986.97;;;1.95;83.92
23261;BME280;11799;47.740;-3.390;2022-12-07T04:43:38;102001.75;;;1.94;83.74
23261;BME280;11799;47.740;-3.390;2022-12-07T04:46:04;102004.31;;;1.96;83.74
23261;BME280;11799;47.740;-3.390;2022-12-07T04:48:30;101995.66;;;1.95;83.53
23261;BME280;11799;47.740;-3.390;2022-12-07T04:50:56;102001.81;;;1.91;83.56
23261;BME280;11799;47.740;-3.390;2022-12-07T04:53:22;101999.19;;;1.93;83.47
23261;BME280;11799;47.740;-3.390;2022-12-07T04:55:47;101996.66;;;1.90;83.00
23261;BME280;11799;47.740;-3.390;2022-12-07T04:58:13;101996.66;;;1.90;83.19
23261;BME280;11799;47.740;-3.390;2022-12-07T05:00:40;102001.06;;;1.86;83.42
23261;BME280;11799;47.740;-3.390;2022-12-07T05:03:06;101996.69;;;1.88;83.05
23261;BME280;11799;47.740;-3.390;2022-12-07T05:05:32;101997.72;;;1.81;82.75
23261;BME280;11799;47.740;-3.390;2022-12-07T05:07:58;102001.25;;;1.79;82.97
23261;BME280;11799;47.740;-3.390;2022-12-07T05:10:23;101989.03;;;1.81;83.32
23261;BME280;11799;47.740;-3.390;2022-12-07T05:12:49;101995.34;;;1.72;83.21
23261;BME280;11799;47.740;-3.390;2022-12-07T05:15:15;101989.31;;;1.70;83.06
23261;BME280;11799;47.740;-3.390;2022-12-07T05:17:41;101992.00;;;1.65;82.82
23261;BME280;11799;47.740;-3.390;2022-12-07T05:20:08;101998.94;;;1.67;83.04
23261;BME280;11799;47.740;-3.390;2022-12-07T05:22:34;101991.22;;;1.62;83.20
23261;BME280;11799;47.740;-3.390;2022-12-07T05:25:00;101985.94;;;1.65;82.91
23261;BME280;11799;47.740;-3.390;2022-12-07T05:27:26;101990.34;;;1.63;83.07
23261;BME280;11799;47.740;-3.390;2022-12-07T05:29:51;101995.50;;;1.64;83.66
23261;BME280;11799;47.740;-3.390;2022-12-07T05:32:17;101995.47;;;1.66;83.09
23261;BME280;11799;47.740;-3.390;2022-12-07T05:34:43;101995.56;;;1.61;83.15
23261;BME280;11799;47.740;-3.390;2022-12-07T05:37:08;101999.03;;;1.62;83.56
23261;BME280;11799;47.740;-3.390;2022-12-07T05:39:34;101997.44;;;1.55;83.31
23261;BME280;11799;47.740;-3.390;2022-12-07T05:41:59;102000.84;;;1.58;83.06
23261;BME280;11799;47.740;-3.390;2022-12-07T05:44:38;101994.81;;;1.56;83.22
23261;BME280;11799;47.740;-3.390;2022-12-07T05:47:04;101994.00;;;1.54;83.66
23261;BME280;11799;47.740;-3.390;2022-12-07T05:49:30;101996.63;;;1.53;83.25
23261;BME280;11799;47.740;-3.390;2022-12-07T05:51:55;101994.06;;;1.51;83.24
23261;BME280;11799;47.740;-3.390;2022-12-07T05:54:21;101989.75;;;1.50;83.34
23261;BME280;11799;47.740;-3.390;2022-12-07T05:56:46;101992.28;;;1.53;83.89
23261;BME280;11799;47.740;-3.390;2022-12-07T05:59:12;101986.22;;;1.53;83.84
23261;BME280;11799;47.740;-3.390;2022-12-07T06:02:13;101986.25;;;1.51;83.86
23261;BME280;11799;47.740;-3.390;2022-12-07T06:04:42;101985.47;;;1.48;83.00
23261;BME280;11799;47.740;-3.390;2022-12-07T06:07:10;101981.00;;;1.53;83.80
23261;BME280;11799;47.740;-3.390;2022-12-07T06:09:36;101987.16;;;1.49;83.77
23261;BME280;11799;47.740;-3.390;2022-12-07T06:12:02;101979.44;;;1.46;83.56
23261;BME280;11799;47.740;-3.390;2022-12-07T06:14:47;101976.66;;;1.53;83.75
23261;BME280;11799;47.740;-3.390;2022-12-07T06:17:13;101978.50;;;1.48;83.30
23261;BME280;11799;47.740;-3.390;2022-12-07T06:19:39;101984.63;;;1.46;83.37
23261;BME280;11799;47.740;-3.390;2022-12-07T06:22:05;101991.63;;;1.44;83.36
23261;BME280;11799;47.740;-3.390;2022-12-07T06:24:32;101987.19;;;1.47;83.38
23261;BME280;11799;47.740;-3.390;2022-12-07T06:26:58;101985.50;;;1.46;83.12
23261;BME280;11799;47.740;-3.390;2022-12-07T06:29:24;101985.38;;;1.51;83.26
23261;BME280;11799;47.740;-3.390;2022-12-07T06:31:50;101985.47;;;1.48;83.15
23261;BME280;11799;47.740;-3.390;2022-12-07T06:34:18;101980.19;;;1.51;83.21
23261;BME280;11799;47.740;-3.390;2022-12-07T06:36:44;101988.09;;;1.46;83.26
23261;BME280;11799;47.740;-3.390;2022-12-07T06:39:10;101990.66;;;1.48;83.51
23261;BME280;11799;47.740;-3.390;2022-12-07T06:41:36;101987.97;;;1.52;83.33
23261;BME280;11799;47.740;-3.390;2022-12-07T06:44:03;101982.75;;;1.52;83.60
23261;BME280;11799;47.740;-3.390;2022-12-07T06:46:29;101992.31;;;1.52;83.25
23261;BME280;11799;47.740;-3.390;2022-12-07T06:48:55;101986.25;;;1.51;83.17
23261;BME280;11799;47.740;-3.390;2022-12-07T06:51:21;101986.34;;;1.47;83.28
23261;BME280;11799;47.740;-3.390;2022-12-07T06:53:46;101992.41;;;1.47;82.97
23261;BME280;11799;47.740;-3.390;2022-12-07T06:56:12;101989.84;;;1.46;83.14
23261;BME280;11799;47.740;-3.390;2022-12-07T06:58:39;101986.31;;;1.48;83.40
23261;BME280;11799;47.740;-3.390;2022-12-07T07:01:12;101992.28;;;1.53;83.46
23261;BME280;11799;47.740;-3.390;2022-12-07T07:03:38;101991.53;;;1.48;83.76
23261;BME280;11799;47.740;-3.390;2022-12-07T07:06:05;101994.94;;;1.50;83.46
23261;BME280;11799;47.740;-3.390;2022-12-07T07:08:31;101988.88;;;1.50;83.43
23261;BME280;11799;47.740;-3.390;2022-12-07T07:10:57;101989.84;;;1.46;83.05
23261;BME280;11799;47.740;-3.390;2022-12-07T07:13:22;101986.28;;;1.50;83.23
23261;BME280;11799;47.740;-3.390;2022-12-07T07:15:48;101988.06;;;1.48;83.33
23261;BME280;11799;47.740;-3.390;2022-12-07T07:18:14;101994.19;;;1.45;82.83
23261;BME280;11799;47.740;-3.390;2022-12-07T07:20:39;101993.28;;;1.46;83.15
23261;BME280;11799;47.740;-3.390;2022-12-07T07:23:06;101989.81;;;1.47;83.15
23261;BME280;11799;47.740;-3.390;2022-12-07T07:25:32;101994.94;;;1.50;83.09
23261;BME280;11799;47.740;-3.390;2022-12-07T07:27:58;101993.28;;;1.46;83.34
23261;BME280;11799;47.740;-3.390;2022-12-07T07:30:23;101996.72;;;1.48;83.13
23261;BME280;11799;47.740;-3.390;2022-12-07T07:32:49;101996.66;;;1.51;83.37
23261;BME280;11799;47.740;-3.390;2022-12-07T07:35:15;101999.28;;;1.50;83.48
23261;BME280;11799;47.740;-3.390;2022-12-07T07:37:41;101998.47;;;1.48;83.63
23261;BME280;11799;47.740;-3.390;2022-12-07T07:40:08;101994.09;;;1.50;83.25
23261;BME280;11799;47.740;-3.390;2022-12-07T07:42:33;101994.16;;;1.47;83.68
23261;BME280;11799;47.740;-3.390;2022-12-07T07:44:59;101992.44;;;1.46;83.52
23261;BME280;11799;47.740;-3.390;2022-12-07T07:47:25;101995.94;;;1.45;83.35
23261;BME280;11799;47.740;-3.390;2022-12-07T07:49:50;101996.00;;;1.42;83.16
23261;BME280;11799;47.740;-3.390;2022-12-07T07:52:16;102000.28;;;1.44;83.27
23261;BME280;11799;47.740;-3.390;2022-12-07T07:54:41;101998.56;;;1.43;83.10
23261;BME280;11799;47.740;-3.390;2022-12-07T07:57:07;101997.72;;;1.43;83.32
23261;BME280;11799;47.740;-3.390;2022-12-07T07:59:33;102000.47;;;1.35;82.82
23261;BME280;11799;47.740;-3.390;2022-12-07T08:01:58;102003.03;;;1.37;82.69
23261;BME280;11799;47.740;-3.390;2022-12-07T08:04:24;101994.38;;;1.36;82.79
23261;BME280;11799;47.740;-3.390;2022-12-07T08:06:49;101997.91;;;1.33;82.70
23261;BME280;11799;47.740;-3.390;2022-12-07T08:09:15;101997.03;;;1.33;82.90
23261;BME280;11799;47.740;-3.390;2022-12-07T08:11:40;101999.69;;;1.31;83.19
23261;BME280;11799;47.740;-3.390;2022-12-07T08:14:06;102003.97;;;1.34;83.36
23261;BME280;11799;47.740;-3.390;2022-12-07T08:16:32;102000.59;;;1.29;82.99
23261;BME280;11799;47.740;-3.390;2022-12-07T08:18:57;102007.53;;;1.28;83.66
23261;BME280;11799;47.740;-3.390;2022-12-07T08:21:23;102006.66;;;1.29;83.07
23261;BME280;11799;47.740;-3.390;2022-12-07T08:23:48;102008.44;;;1.27;83.16
23261;BME280;11799;47.740;-3.390;2022-12-07T08:26:15;102006.63;;;1.31;83.34
23261;BME280;11799;47.740;-3.390;2022-12-07T08:28:41;102012.78;;;1.27;83.48
23261;BME280;11799;47.740;-3.390;2022-12-07T08:31:11;102010.09;;;1.31;83.34
23261;BME280;11799;47.740;-3.390;2022-12-07T08:33:37;102012.69;;;1.31;83.09
23261;BME280;11799;47.740;-3.390;2022-12-07T08:36:05;102013.47;;;1.35;83.79
23261;BME280;11799;47.740;-3.390;2022-12-07T08:38:31;102019.22;;;1.51;83.77
23261;BME280;11799;47.740;-3.390;2022-12-07T08:40:58;102022.25;;;1.73;83.65
23261;BME280;11799;47.740;-3.390;2022-12-07T08:43:24;102025.38;;;1.87;83.12
23261;BME280;11799;47.740;-3.390;2022-12-07T08:45:58;102033.03;;;1.93;82.55
23261;BME280;11799;47.740;-3.390;2022-12-07T08:48:27;102032.13;;;1.95;82.27
23261;BME280;11799;47.740;-3.390;2022-12-07T08:50:53;102029.41;;;2.00;81.75
23261;BME280;11799;47.740;-3.390;2022-12-07T08:53:19;102042.34;;;2.05;81.92
23261;BME280;11799;47.740;-3.390;2022-12-07T08:55:45;102041.38;;;2.09;81.72
23261;BME280;11799;47.740;-3.390;2022-12-07T08:58:11;102036.97;;;2.11;81.30
23261;BME280;11799;47.740;-3.390;2022-12-07T09:00:37;102036.91;;;2.14;81.24
23261;BME280;11799;47.740;-3.390;2022-12-07T09:03:03;102043.81;;;2.16;81.57
23261;BME280;11799;47.740;-3.390;2022-12-07T09:05:28;102041.13;;;2.19;81.53
23261;BME280;11799;47.740;-3.390;2022-12-07T09:07:57;102035.84;;;2.22;81.47
23261;BME280;11799;47.740;-3.390;2022-12-07T09:10:24;102033.97;;;2.27;81.76
23261;BME280;11799;47.740;-3.390;2022-12-07T09:12:50;102039.13;;;2.30;81.44
23261;BME280;11799;47.740;-3.390;2022-12-07T09:15:15;102039.75;;;2.39;81.21
23261;BME280;11799;47.740;-3.390;2022-12-07T09:17:41;102033.63;;;2.41;81.36
23261;BME280;11799;47.740;-3.390;2022-12-07T09:20:07;102037.69;;;2.53;81.26
23261;BME280;11799;47.740;-3.390;2022-12-07T09:22:33;102044.47;;;2.60;80.84
23261;BME280;11799;47.740;-3.390;2022-12-07T09:24:59;102039.94;;;2.67;81.90
23261;BME280;11799;47.740;-3.390;2022-12-07T09:27:25;102037.97;;;2.76;81.55
23261;BME280;11799;47.740;-3.390;2022-12-07T09:29:51;102039.44;;;2.86;81.06
23261;BME280;11799;47.740;-3.390;2022-12-07T09:32:16;102036.56;;;2.95;80.76
23261;BME280;11799;47.740;-3.390;2022-12-07T09:34:42;102032.66;;;3.10;80.74
23261;BME280;11799;47.740;-3.390;2022-12-07T09:37:08;102035.72;;;3.26;79.87
23261;BME280;11799;47.740;-3.390;2022-12-07T09:39:33;102038.38;;;3.54;79.26
23261;BME280;11799;47.740;-3.390;2022-12-07T09:42:03;102031.31;;;4.13;79.85
23261;BME280;11799;47.740;-3.390;2022-12-07T09:44:29;102030.44;;;4.65;76.98
23261;BME280;11799;47.740;-3.390;2022-12-07T09:46:55;102027.59;;;5.21;76.00
23261;BME280;11799;47.740;-3.390;2022-12-07T09:49:23;102024.13;;;5.68;73.46
23261;BME280;11799;47.740;-3.390;2022-12-07T09:52:01;102018.75;;;6.16;71.05
23261;BME280;11799;47.740;-3.390;2022-12-07T09:54:28;102015.44;;;6.53;69.56
23261;BME280;11799;47.740;-3.390;2022-12-07T09:56:55;102017.63;;;6.84;66.92
23261;BME280;11799;47.740;-3.390;2022-12-07T09:59:20;102018.59;;;7.02;66.92
23261;BME280;11799;47.740;-3.390;2022-12-07T10:01:49;102013.47;;;6.99;66.16
23261;BME280;11799;47.740;-3.390;2022-12-07T10:04:24;102017.00;;;6.97;66.08
23261;BME280;11799;47.740;-3.390;2022-12-07T10:06:51;102018.22;;;6.90;66.31
23261;BME280;11799;47.740;-3.390;2022-12-07T10:09:19;102017.63;;;6.84;65.95
23261;BME280;11799;47.740;-3.390;2022-12-07T10:12:07;102012.84;;;6.73;67.11
23261;BME280;11799;47.740;-3.390;2022-12-07T10:14:55;102016.31;;;6.53;67.23
23261;BME280;11799;47.740;-3.390;2022-12-07T10:20:17;102011.63;;;6.19;67.68
23261;BME280;11799;47.740;-3.390;2022-12-07T10:23:14;102010.41;;;6.06;67.72
23261;BME280;11799;47.740;-3.390;2022-12-07T10:25:41;102007.28;;;5.96;68.65
23261;BME280;11799;47.740;-3.390;2022-12-07T10:31:30;102002.53;;;5.83;69.37
23261;BME280;11799;47.740;-3.390;2022-12-07T10:33:48;102009.81;;;5.76;69.70
23261;BME280;11799;47.740;-3.390;2022-12-07T10:39:09;102004.31;;;5.60;70.32
23261;BME280;11799;47.740;-3.390;2022-12-07T10:41:55;101997.53;;;5.55;70.17
23261;BME280;11799;47.740;-3.390;2022-12-07T10:44:30;101997.47;;;5.56;70.82
23261;BME280;11799;47.740;-3.390;2022-12-07T10:50:06;101991.44;;;5.54;71.31
23261;BME280;11799;47.740;-3.390;2022-12-07T11:00:44;101978.22;;;5.57;70.84
23261;BME280;11799;47.740;-3.390;2022-12-07T11:06:19;101959.59;;;5.65;70.46
23261;BME280;11799;47.740;-3.390;2022-12-07T11:11:23;101958.38;;;5.74;69.72
23261;BME280;11799;47.740;-3.390;2022-12-07T11:17:23;101946.44;;;5.87;69.69
23261;BME280;11799;47.740;-3.390;2022-12-07T11:25:47;101938.53;;;6.10;68.53
23261;BME280;11799;47.740;-3.390;2022-12-07T11:33:43;101917.66;;;6.29;68.03
23261;BME280;11799;47.740;-3.390;2022-12-07T11:36:40;101914.84;;;6.34;67.95
23261;BME280;11799;47.740;-3.390;2022-12-07T11:39:30;101912.97;;;6.36;67.94
23261;BME280;11799;47.740;-3.390;2022-12-07T11:45:15;101911.06;;;6.39;68.34
23261;BME280;11799;47.740;-3.390;2022-12-07T11:47:51;101899.59;;;6.42;68.39
23261;BME280;11799;47.740;-3.390;2022-12-07T11:56:03;101896.69;;;6.48;68.23
23261;BME280;11799;47.740;-3.390;2022-12-07T12:06:44;101888.03;;;6.46;66.91
23261;BME280;11799;47.740;-3.390;2022-12-07T12:09:16;101889.75;;;6.47;66.81
23261;BME280;11799;47.740;-3.390;2022-12-07T12:12:17;101881.94;;;6.45;68.01
23261;BME280;11799;47.740;-3.390;2022-12-07T12:22:47;101873.34;;;6.42;66.52
23261;BME280;11799;47.740;-3.390;2022-12-07T12:25:28;101865.47;;;6.42;66.06
23261;BME280;11799;47.740;-3.390;2022-12-07T12:27:58;101869.09;;;6.39;66.59
23261;BME280;11799;47.740;-3.390;2022-12-07T12:30:34;101861.22;;;6.39;67.14
23261;BME280;11799;47.740;-3.390;2022-12-07T12:33:11;101867.25;;;6.41;67.46
23261;BME280;11799;47.740;-3.390;2022-12-07T12:35:38;101865.53;;;6.40;65.98
23261;BME280;11799;47.740;-3.390;2022-12-07T12:38:29;101866.47;;;6.39;65.72
23261;BME280;11799;47.740;-3.390;2022-12-07T12:40:56;101860.38;;;6.39;66.65
23261;BME280;11799;47.740;-3.390;2022-12-07T12:43:45;101858.66;;;6.38;66.30
23261;BME280;11799;47.740;-3.390;2022-12-07T12:46:48;101848.16;;;6.38;65.18
23261;BME280;11799;47.740;-3.390;2022-12-07T12:51:50;101840.34;;;6.36;64.89
23261;BME280;11799;47.740;-3.390;2022-12-07T12:54:25;101844.75;;;6.36;65.19
23261;BME280;11799;47.740;-3.390;2022-12-07T12:57:13;101840.28;;;6.38;64.76
23261;BME280;11799;47.740;-3.390;2022-12-07T13:15:50;101811.44;;;6.38;65.24
23261;BME280;11799;47.740;-3.390;2022-12-07T13:23:31;101805.91;;;6.44;65.10
23261;BME280;11799;47.740;-3.390;2022-12-07T13:28:43;101796.28;;;6.44;64.76
23261;BME280;11799;47.740;-3.390;2022-12-07T13:33:47;101792.72;;;6.45;63.79
23261;BME280;11799;47.740;-3.390;2022-12-07T13:36:22;101786.56;;;6.46;63.48
23261;BME280;11799;47.740;-3.390;2022-12-07T13:38:59;101782.94;;;6.49;63.59
23261;BME280;11799;47.740;-3.390;2022-12-07T13:41:29;101777.69;;;6.49;63.78
23261;BME280;11799;47.740;-3.390;2022-12-07T13:44:17;101768.97;;;6.48;63.75
23261;BME280;11799;47.740;-3.390;2022-12-07T13:49:29;101760.09;;;6.51;63.92
23261;BME280;11799;47.740;-3.390;2022-12-07T13:52:14;101754.72;;;6.54;63.64
23261;BME280;11799;47.740;-3.390;2022-12-07T13:54:55;101750.38;;;6.53;64.83
23261;BME280;11799;47.740;-3.390;2022-12-07T13:57:25;101750.31;;;6.54;63.89
23261;BME280;11799;47.740;-3.390;2022-12-07T13:59:51;101746.00;;;6.53;64.55
23261;BME280;11799;47.740;-3.390;2022-12-07T14:02:25;101744.28;;;6.52;63.39
23261;BME280;11799;47.740;-3.390;2022-12-07T14:04:51;101740.03;;;6.50;64.04
23261;BME280;11799;47.740;-3.390;2022-12-07T14:07:28;101743.44;;;6.52;62.94
23261;BME280;11799;47.740;-3.390;2022-12-07T14:10:01;101742.66;;;6.50;64.41
23261;BME280;11799;47.740;-3.390;2022-12-07T14:12:29;101742.66;;;6.50;63.94
23261;BME280;11799;47.740;-3.390;2022-12-07T14:14:55;101734.78;;;6.50;62.72
23261;BME280;11799;47.740;-3.390;2022-12-07T14:17:24;101732.94;;;6.52;62.69
23261;BME280;11799;47.740;-3.390;2022-12-07T14:19:52;101726.84;;;6.51;62.44
23261;BME280;11799;47.740;-3.390;2022-12-07T14:24:48;101716.34;;;6.51;63.51
23261;BME280;11799;47.740;-3.390;2022-12-07T14:27:21;101720.69;;;6.52;62.83
23261;BME280;11799;47.740;-3.390;2022-12-07T14:29:48;101711.03;;;6.53;62.86
23261;BME280;11799;47.740;-3.390;2022-12-07T14:32:25;101710.97;;;6.54;62.79
23261;BME280;11799;47.740;-3.390;2022-12-07T14:37:27;101700.69;;;6.50;63.22
23261;BME280;11799;47.740;-3.390;2022-12-07T14:39:53;101698.81;;;6.52;64.35
23261;BME280;11799;47.740;-3.390;2022-12-07T14:42:20;101690.88;;;6.53;62.73
23261;BME280;11799;47.740;-3.390;2022-12-07T14:44:47;101696.19;;;6.52;63.15
23261;BME280;11799;47.740;-3.390;2022-12-07T14:47:13;101689.19;;;6.52;63.17
23261;BME280;11799;47.740;-3.390;2022-12-07T14:49:39;101690.97;;;6.52;63.71
23261;BME280;11799;47.740;-3.390;2022-12-07T14:52:06;101685.78;;;6.50;62.89
23261;BME280;11799;47.740;-3.390;2022-12-07T14:54:37;101684.84;;;6.51;63.31
23261;BME280;11799;47.740;-3.390;2022-12-07T14:57:02;101680.53;;;6.50;63.26
23261;BME280;11799;47.740;-3.390;2022-12-07T14:59:28;101680.59;;;6.49;64.11
23261;BME280;11799;47.740;-3.390;2022-12-07T15:01:53;101679.75;;;6.48;64.15
23261;BME280;11799;47.740;-3.390;2022-12-07T15:04:19;101679.75;;;6.48;64.12
23261;BME280;11799;47.740;-3.390;2022-12-07T15:06:58;101687.69;;;6.47;63.81
23261;BME280;11799;47.740;-3.390;2022-12-07T15:09:24;101688.53;;;6.47;63.04
23261;BME280;11799;47.740;-3.390;2022-12-07T15:11:50;101686.78;;;6.48;62.53
23261;BME280;11799;47.740;-3.390;2022-12-07T15:14:16;101677.19;;;6.47;63.11
23261;BME280;11799;47.740;-3.390;2022-12-07T15:16:42;101675.50;;;6.46;63.13
23261;BME280;11799;47.740;-3.390;2022-12-07T15:19:19;101675.44;;;6.47;63.47
23261;BME280;11799;47.740;-3.390;2022-12-07T15:21:48;101682.44;;;6.47;63.04
23261;BME280;11799;47.740;-3.390;2022-12-07T15:24:14;101680.75;;;6.46;63.28